SBOSBO FAO / LPFR
Speedbird OnlineSpeedbird Online FAO / LPFR

Faro Airport
05:52 7°C

Location Faro, Portugal
Latitude: 37.0144004822
Longitude: -7.96590995789
Web Airport Website | Wikipedia
Altitude 7 Meter / 24 Feet
Distance 1,733 KM / 1,077 Miles
from London.
Time Zone UTC 0 hours (Europe/Lisbon)
Codes IATA: FAO
ICAO: LPFR
Currency £1 equals EUR 1.14
Runways
RunwayLength (m)Surface
102490Asphalt
282490Asphalt
Radio
TypeDescriptionFrequency
APPAPP119.4
ATISATIS124.2
GNDGND118.575
TWRTWR118.2
Live ATC
METAR LPFR 290530Z 02008KT CAVOK 07/M02 Q1020
TAF TAF LPFR 290500Z 2906/3006 02008KT CAVOK BECMG 2910/2913 10010KT BECMG 2918/2920 02008KT
Weather As Of 29 Jan 2023 05:52
Description Clear sky
Wind 15 km/h from North (20°)
Cloud Cover 0%
Precipitation Rain: none, Snow: none
Sunrise 07:37
Sunset 17:52
Lounges CIP Lounge, Main Terminal
Rotations During the last 90 days there were
136 flights from LGW
135 flights to LGW
1 flights to STN



Support Speedbird Online

© 2017-2023 Speedbird Online